»·PEaware :: N357VT KAZC-KSBP

N357VT :: KAZC-KSBP

FLIGHT INFORMATION

Flight Status: Arrived
Operator: Privately registered:
United States
More flights under this callsign
Pilot: Patrick S. (2918)
Aircraft: CESSNA 500 CITATION 1
(C500)
More flights by this aircraft type
Origin: KAZC Colorado City Mun
United States
Destination: KSBP San Luis Co Regl
United States
More flights between these airports :: More routes between these airports
Route: +UTI JITKA MMM V394 BASAL V12 PMD V137 GMN FLW WYNNR
File this flight plan on PilotEdge
Remarks: WX set in Sim within 30 sm of KSBP as follows; KSBP 211600Z 31511KT 1SM BKN004 OVC007 OVC008 OVC027 OVC077 15 / 12 A2997 / V /
Altitude:
(Current/Filed)
20,000ft
Speed:
(Current/Filed)
320kts
Departed: 16-Mar-14 04:50 PM
Arrived: 16-Mar-14 06:26 PM
Distance/Time
Traveled:
384nm/1:36
Distance/Time
To Go:
Arrived

Flight Plot

Page will automatically refresh every two minutes.

Flight plan parsing failed; only flown route is shown


Map Options




Map Legend


Flown Route
Filed Route
Departure Airport
Arrival Airport
Navaid (VOR, NDB)
Fix

Horizontal Profiles

Position Reports

Time Latitude Longitude Heading Altitude Ground
Speed
16-Mar-14 16:16 36.960623 -113.009604 70 4876ft 0kts
16-Mar-14 16:17 36.960623 -113.009604 70 4876ft 0kts
16-Mar-14 16:18 36.960623 -113.009604 70 4876ft 0kts
16-Mar-14 16:19 36.960623 -113.009603 70 4876ft 0kts
16-Mar-14 16:20 36.960623 -113.009603 70 4876ft 0kts
16-Mar-14 16:21 36.960623 -113.009603 70 4876ft 0kts
16-Mar-14 16:22 36.960623 -113.009603 70 4876ft 0kts
16-Mar-14 16:23 36.960623 -113.009602 70 4876ft 0kts
16-Mar-14 16:24 36.960624 -113.009602 70 4876ft 0kts
16-Mar-14 16:25 36.960624 -113.009602 70 4876ft 0kts
16-Mar-14 16:26 36.960624 -113.009601 70 4876ft 0kts
16-Mar-14 16:27 36.960624 -113.009601 70 4876ft 0kts
16-Mar-14 16:28 36.960624 -113.009601 70 4876ft 0kts
16-Mar-14 16:29 36.960624 -113.009600 70 4876ft 0kts
16-Mar-14 16:30 36.960624 -113.009600 70 4876ft 0kts
16-Mar-14 16:31 36.960624 -113.009600 70 4876ft 0kts
16-Mar-14 16:32 36.960624 -113.009600 70 4876ft 0kts
16-Mar-14 16:33 36.960624 -113.009599 70 4876ft 0kts
16-Mar-14 16:34 36.960624 -113.009599 70 4876ft 0kts
16-Mar-14 16:35 36.960625 -113.009598 70 4876ft 0kts
16-Mar-14 16:36 36.959289 -113.009552 212 4876ft 5kts
16-Mar-14 16:37 36.958237 -113.010365 210 4876ft 0kts
16-Mar-14 16:38 36.958235 -113.010366 210 4876ft 0kts
16-Mar-14 16:39 36.958233 -113.010368 210 4876ft 0kts
16-Mar-14 16:40 36.955711 -113.006406 133 4876ft 21kts
16-Mar-14 16:41 36.955635 -113.005995 300 4876ft 0kts
16-Mar-14 16:42 36.955635 -113.005996 300 4876ft 0kts
16-Mar-14 16:43 36.955847 -113.006469 300 4876ft 24kts
16-Mar-14 16:44 36.967534 -113.036462 264 5598ft 143kts
16-Mar-14 16:45 36.945912 -113.026885 95 7972ft 165kts
16-Mar-14 16:46 36.960787 -112.973313 8 10192ft 164kts
16-Mar-14 16:47 36.966362 -113.020637 249 11771ft 219kts
16-Mar-14 16:48 36.964697 -113.086597 283 14851ft 182kts
16-Mar-14 16:49 36.975102 -113.148553 287 17281ft 183kts
16-Mar-14 16:50 36.983266 -113.213020 285 19521ft 192kts
16-Mar-14 16:51 36.992114 -113.287566 283 20354ft 260kts
16-Mar-14 16:52 37.003842 -113.390320 281 20298ft 325kts
16-Mar-14 16:53 37.019751 -113.495028 300 20292ft 289kts
16-Mar-14 16:54 37.074230 -113.566610 307 20290ft 287kts
16-Mar-14 16:55 37.065829 -113.665806 246 20299ft 313kts
16-Mar-14 16:56 37.019504 -113.759663 241 20291ft 319kts
16-Mar-14 16:57 36.972171 -113.852322 242 20290ft 315kts
16-Mar-14 16:58 36.926443 -113.945904 243 20290ft 314kts
16-Mar-14 16:59 36.881634 -114.039583 243 20290ft 314kts
16-Mar-14 17:00 36.836890 -114.133578 243 20290ft 314kts
16-Mar-14 17:01 36.792157 -114.227586 243 20290ft 314kts
16-Mar-14 17:02 36.742407 -114.317852 231 20296ft 320kts
16-Mar-14 17:03 36.678812 -114.396439 227 20290ft 322kts
16-Mar-14 17:04 36.615472 -114.475051 228 20290ft 321kts
16-Mar-14 17:05 36.582124 -114.517245 228 20290ft 321kts
16-Mar-14 17:06 36.519611 -114.597078 228 20290ft 321kts
16-Mar-14 17:07 36.457218 -114.677009 228 20290ft 321kts
16-Mar-14 17:08 36.394876 -114.756812 228 20290ft 321kts
16-Mar-14 17:09 36.332487 -114.836523 228 20290ft 321kts
16-Mar-14 17:10 36.270220 -114.915905 228 20290ft 321kts
16-Mar-14 17:11 36.207729 -114.995448 228 20290ft 321kts
16-Mar-14 17:12 36.146670 -115.073110 228 20290ft 321kts
16-Mar-14 17:13 36.084253 -115.152663 229 20270ft 321kts
16-Mar-14 17:15 36.001386 -115.258665 229 20277ft 321kts
16-Mar-14 17:15 35.960006 -115.311877 229 20327ft 321kts
16-Mar-14 17:16 35.897936 -115.391751 229 20330ft 321kts
16-Mar-14 17:17 35.836176 -115.471173 229 20330ft 321kts
16-Mar-14 17:18 35.774138 -115.550785 229 20330ft 321kts
16-Mar-14 17:19 35.712130 -115.630192 229 20330ft 321kts
16-Mar-14 17:20 35.649971 -115.709594 229 20330ft 321kts
16-Mar-14 17:21 35.587787 -115.788848 229 20330ft 321kts
16-Mar-14 17:22 35.527128 -115.866080 227 20314ft 318kts
16-Mar-14 17:23 35.465602 -115.944156 227 20310ft 318kts
16-Mar-14 17:24 35.404669 -116.021217 227 20310ft 319kts
16-Mar-14 17:25 35.342753 -116.099397 227 20310ft 319kts
16-Mar-14 17:26 35.280797 -116.177462 227 20310ft 319kts
16-Mar-14 17:27 35.218794 -116.255436 227 20310ft 319kts
16-Mar-14 17:28 35.167060 -116.320373 227 20310ft 319kts
16-Mar-14 17:29 35.105208 -116.397913 227 20310ft 319kts
16-Mar-14 17:30 35.043104 -116.475695 227 20310ft 319kts
16-Mar-14 17:31 34.981113 -116.553421 227 20287ft 319kts
16-Mar-14 17:32 34.911247 -116.646486 230 20280ft 318kts
16-Mar-14 17:33 34.862557 -116.714315 230 20280ft 318kts
16-Mar-14 17:34 34.804226 -116.795615 230 20280ft 318kts
16-Mar-14 17:35 34.767827 -116.851590 245 20279ft 315kts
16-Mar-14 17:36 34.751425 -116.919475 261 20282ft 314kts
16-Mar-14 17:36 34.743157 -116.989625 264 20280ft 312kts
16-Mar-14 17:37 34.735437 -117.059516 264 20289ft 311kts
16-Mar-14 17:38 34.720745 -117.198976 264 20310ft 312kts
16-Mar-14 17:39 34.711257 -117.305906 266 20308ft 329kts
16-Mar-14 17:40 34.700989 -117.418801 266 20327ft 320kts
16-Mar-14 17:41 34.690086 -117.524395 263 20329ft 312kts
16-Mar-14 17:42 34.677552 -117.628443 264 20330ft 311kts
16-Mar-14 17:43 34.666102 -117.733331 265 20321ft 312kts
16-Mar-14 17:44 34.655975 -117.838045 264 20314ft 311kts
16-Mar-14 17:45 34.644995 -117.942622 264 20340ft 312kts
16-Mar-14 17:46 34.634189 -118.047235 270 20339ft 310kts
16-Mar-14 17:47 34.649218 -118.149491 286 20343ft 308kts
16-Mar-14 17:48 34.672027 -118.249970 286 20331ft 308kts
16-Mar-14 17:49 34.694451 -118.350545 286 20330ft 308kts
16-Mar-14 17:50 34.716377 -118.451005 286 20330ft 308kts
16-Mar-14 17:51 34.738252 -118.552135 285 20320ft 309kts
16-Mar-14 17:52 34.759988 -118.653362 285 20319ft 309kts
16-Mar-14 17:53 34.781666 -118.754797 285 20320ft 309kts
16-Mar-14 17:54 34.803355 -118.856149 287 20322ft 309kts
16-Mar-14 17:55 34.831249 -118.955459 291 20337ft 309kts
16-Mar-14 17:56 34.860555 -119.054146 290 20312ft 309kts
16-Mar-14 17:57 34.889401 -119.152608 290 20241ft 309kts
16-Mar-14 17:58 34.918298 -119.251850 290 19587ft 309kts
16-Mar-14 17:59 34.946360 -119.347830 289 18419ft 307kts
16-Mar-14 18:00 34.975325 -119.450006 290 17074ft 307kts
16-Mar-14 18:01 35.002761 -119.546670 289 15768ft 290kts
16-Mar-14 18:02 35.028240 -119.636608 289 14434ft 235kts
16-Mar-14 18:03 35.048089 -119.706471 288 12837ft 237kts
16-Mar-14 18:04 35.069786 -119.782796 287 11230ft 218kts
16-Mar-14 18:05 35.091601 -119.860133 287 9633ft 253kts
16-Mar-14 18:06 35.100548 -119.943118 272 8894ft 232kts
16-Mar-14 18:07 35.104199 -120.017730 275 8390ft 220kts
16-Mar-14 18:08 35.109326 -120.094217 277 7289ft 222kts
16-Mar-14 18:09 35.114392 -120.165490 277 6182ft 202kts
16-Mar-14 18:10 35.117585 -120.233392 274 5080ft 199kts
16-Mar-14 18:11 35.118465 -120.301068 273 3980ft 198kts
16-Mar-14 18:12 35.118952 -120.366057 272 3504ft 174kts
16-Mar-14 18:13 35.125309 -120.441899 292 4025ft 240kts
16-Mar-14 18:14 35.158274 -120.505933 311 3614ft 167kts
16-Mar-14 18:15 35.182312 -120.544436 309 2551ft 128kts
16-Mar-14 18:16 35.196734 -120.569755 308 1825ft 82kts
16-Mar-14 18:17 35.208997 -120.591297 303 999ft 96kts
16-Mar-14 18:18 35.221335 -120.613860 310 575ft 74kts
16-Mar-14 18:19 35.234109 -120.635229 307 221ft 68kts
16-Mar-14 18:20 35.237417 -120.642178 272 214ft 11kts
16-Mar-14 18:21 35.237460 -120.649173 270 214ft 20kts

Navigation Log

Ident Type
Flight plan parsing failed, navigation log unavailable